Time;durP1;ratioP1;P1;durP2;ratioP2;P2;SDS_P1;SDS_P2;PMS_P1;PMS_P2;Temp;Humidity;BMP_temperature;BMP_pressure;BME280_temperature;BME280_humidity;BME280_pressure;Samples;Min_cycle;Max_cycle;Signal;HPM_P1;HPM_P2
2023/12/19 05:02:03;;;;;;;4.00;2.83;;;6.10;95.00;;;;;;5356952;23;20499;-89
2023/12/19 05:04:29;;;;;;;2.80;2.60;;;6.10;94.70;;;;;;4988656;28;20463;-90
2023/12/19 05:06:54;;;;;;;1.67;1.60;;;6.10;94.80;;;;;;4992242;28;20185;-89
2023/12/19 05:09:20;;;;;;;4.83;3.97;;;6.10;94.80;;;;;;4993711;28;20173;-89
2023/12/19 05:11:45;;;;;;;2.13;1.97;;;6.10;94.70;;;;;;4998952;28;20206;-88
2023/12/19 05:14:11;;;;;;;18.20;2.00;;;6.10;94.80;;;;;;4973523;28;20599;-90
2023/12/19 05:16:37;;;;;;;1.53;1.43;;;6.10;94.80;;;;;;4969397;28;20732;-86
2023/12/19 05:19:04;;;;;;;1.67;1.57;;;6.10;95.10;;;;;;4975334;28;20205;-89
2023/12/19 05:21:35;;;;;;;2.07;1.60;;;6.10;95.20;;;;;;4974370;28;20248;-90
2023/12/19 05:24:00;;;;;;;2.03;1.90;;;6.10;95.10;;;;;;4993202;28;20417;-90
2023/12/19 05:26:26;;;;;;;1.30;1.20;;;6.20;95.00;;;;;;4972424;28;20421;-89
2023/12/19 05:28:54;;;;;;;1.47;1.37;;;6.20;94.60;;;;;;4974930;28;20201;-88
2023/12/19 05:31:20;;;;;;;6.53;4.00;;;6.20;94.50;;;;;;4975758;28;20255;-90
2023/12/19 05:33:45;;;;;;;1.33;1.30;;;6.20;94.60;;;;;;4975007;28;20449;-89
2023/12/19 05:36:12;;;;;;;2.13;1.73;;;6.30;94.80;;;;;;4993005;28;20181;-90
2023/12/19 05:38:39;;;;;;;1.93;1.77;;;6.30;94.50;;;;;;4988966;28;20181;-89
2023/12/19 05:41:05;;;;;;;3.37;1.70;;;6.30;94.40;;;;;;4974314;28;20471;-89
2023/12/19 05:43:31;;;;;;;4.93;2.03;;;6.30;94.30;;;;;;4975199;28;20803;-89
2023/12/19 05:45:56;;;;;;;14.90;3.13;;;6.40;94.70;;;;;;4974996;28;20499;-89
2023/12/19 05:48:22;;;;;;;2.90;2.27;;;6.40;94.60;;;;;;4992395;28;20409;-89
2023/12/19 05:50:49;;;;;;;13.37;2.90;;;6.40;94.80;;;;;;4974048;28;20639;-89
2023/12/19 05:53:14;;;;;;;2.50;1.97;;;6.30;95.00;;;;;;4992672;28;20840;-89
2023/12/19 05:55:40;;;;;;;5.33;1.67;;;6.30;95.00;;;;;;4975148;28;20428;-90
2023/12/19 05:58:06;;;;;;;1.90;1.50;;;6.30;95.30;;;;;;4975337;28;20660;-88
2023/12/19 06:00:32;;;;;;;1.63;1.53;;;6.30;95.20;;;;;;4991970;28;20265;-89
2023/12/19 06:02:57;;;;;;;5.77;2.63;;;6.30;95.20;;;;;;4974987;28;20261;-89
2023/12/19 06:05:24;;;;;;;1.80;1.70;;;6.30;95.40;;;;;;4975405;28;20591;-89
2023/12/19 06:07:49;;;;;;;1.63;1.57;;;6.30;95.40;;;;;;4974562;28;20671;-89
2023/12/19 06:10:15;;;;;;;2.50;2.10;;;6.30;95.60;;;;;;4971551;28;20468;-89
2023/12/19 06:12:41;;;;;;;1.93;1.50;;;6.30;95.90;;;;;;4992254;28;20210;-89
2023/12/19 06:15:12;;;;;;;1.53;1.50;;;6.40;95.90;;;;;;4974807;28;20182;-89
2023/12/19 06:17:42;;;;;;;7.10;2.60;;;6.40;95.90;;;;;;4975426;28;20429;-88
2023/12/19 06:20:10;;;;;;;2.27;2.07;;;6.40;95.90;;;;;;5002527;23;20491;-86
2023/12/19 06:22:36;;;;;;;6.27;2.83;;;6.50;95.40;;;;;;4993861;28;20435;-87
2023/12/19 06:25:01;;;;;;;1.83;1.73;;;6.50;95.20;;;;;;4993880;28;20428;-86
2023/12/19 06:27:27;;;;;;;2.40;2.20;;;6.50;94.60;;;;;;4994062;28;20428;-88
2023/12/19 06:29:54;;;;;;;1.00;0.90;;;6.50;93.80;;;;;;4988951;28;20559;-88
2023/12/19 06:32:20;;;;;;;2.80;2.60;;;6.50;93.90;;;;;;4978039;28;20510;-86
2023/12/19 06:34:45;;;;;;;1.27;1.17;;;6.50;94.20;;;;;;4987431;28;20413;-87
2023/12/19 06:37:11;;;;;;;2.70;1.60;;;6.40;95.40;;;;;;4992758;28;20185;-86
2023/12/19 06:39:36;;;;;;;3.47;1.43;;;6.40;96.20;;;;;;4973378;28;20210;-86
2023/12/19 06:42:02;;;;;;;3.13;2.80;;;6.30;96.30;;;;;;4991790;28;20169;-85
2023/12/19 06:44:27;;;;;;;1.57;1.57;;;6.20;96.80;;;;;;4978602;28;20272;-86
2023/12/19 06:46:53;;;;;;;1.70;1.60;;;6.20;97.20;;;;;;4979648;28;20228;-85
2023/12/19 06:49:19;;;;;;;3.07;2.13;;;6.10;97.30;;;;;;4975549;28;20250;-84
2023/12/19 06:51:45;;;;;;;3.17;2.97;;;6.10;97.00;;;;;;4978609;28;20209;-85
2023/12/19 06:54:11;;;;;;;2.33;2.13;;;6.10;96.60;;;;;;4978887;28;20425;-86
2023/12/19 06:56:36;;;;;;;2.70;1.53;;;6.10;96.20;;;;;;4995813;28;20209;-86
2023/12/19 06:59:03;;;;;;;1.50;1.40;;;6.20;95.50;;;;;;4995718;28;20185;-86
2023/12/19 07:01:29;;;;;;;1.50;1.40;;;6.20;95.00;;;;;;4978299;28;20201;-87
2023/12/19 07:03:55;;;;;;;3.30;3.10;;;6.30;94.40;;;;;;4978103;28;20440;-87
2023/12/19 07:06:20;;;;;;;2.07;1.87;;;6.30;94.20;;;;;;4978059;28;20605;-86
2023/12/19 07:08:46;;;;;;;4.93;2.43;;;6.40;93.90;;;;;;4978475;28;20209;-86
2023/12/19 07:11:11;;;;;;;3.60;2.70;;;6.40;93.80;;;;;;4978313;28;20324;-86
2023/12/19 07:13:37;;;;;;;1.13;1.03;;;6.40;93.70;;;;;;4978273;28;20197;-87
2023/12/19 07:16:03;;;;;;;1.60;1.50;;;6.40;93.40;;;;;;4977906;28;20276;-86
2023/12/19 07:18:29;;;;;;;10.00;1.53;;;6.40;93.40;;;;;;4977912;28;20209;-84
2023/12/19 07:20:55;;;;;;;1.20;1.10;;;6.40;93.20;;;;;;4980304;28;20249;-86
2023/12/19 07:23:20;;;;;;;2.63;2.20;;;6.40;92.80;;;;;;4980910;28;21044;-86
2023/12/19 07:25:46;;;;;;;4.03;1.80;;;6.40;93.20;;;;;;4980831;28;20225;-85
2023/12/19 07:28:12;;;;;;;1.57;1.23;;;6.40;93.20;;;;;;4980601;28;20186;-86
2023/12/19 07:30:38;;;;;;;1.73;1.63;;;6.40;93.30;;;;;;4981019;28;20205;-85
2023/12/19 07:33:04;;;;;;;1.30;1.20;;;6.40;93.30;;;;;;4977978;28;20636;-85
2023/12/19 07:35:29;;;;;;;2.03;1.50;;;6.40;92.90;;;;;;4977717;28;20417;-87
2023/12/19 07:37:55;;;;;;;1.30;1.20;;;6.40;92.90;;;;;;4977116;28;20511;-86
2023/12/19 07:40:21;;;;;;;1.30;1.20;;;6.40;93.00;;;;;;4978353;28;20292;-86
2023/12/19 07:42:46;;;;;;;1.47;1.37;;;6.50;92.90;;;;;;4977266;28;20687;-86
2023/12/19 07:45:12;;;;;;;1.30;1.20;;;6.50;93.20;;;;;;4977140;28;20185;-86
2023/12/19 07:47:38;;;;;;;1.57;1.50;;;6.50;93.70;;;;;;4979276;28;20804;-87
2023/12/19 07:50:05;;;;;;;2.30;1.30;;;6.50;93.80;;;;;;4982843;28;20549;-86
2023/12/19 07:52:30;;;;;;;1.67;1.30;;;6.50;93.70;;;;;;4977431;28;20214;-86
2023/12/19 07:54:56;;;;;;;1.20;1.10;;;6.50;93.70;;;;;;4993171;28;20425;-85
2023/12/19 07:57:21;;;;;;;4.60;2.60;;;6.50;93.60;;;;;;4976821;28;20280;-89
2023/12/19 07:59:48;;;;;;;2.03;1.90;;;6.50;93.60;;;;;;4976589;28;20590;-87
2023/12/19 08:02:13;;;;;;;1.13;1.03;;;6.50;93.20;;;;;;4976105;28;20435;-86
2023/12/19 08:04:42;;;;;;;4.13;2.80;;;6.50;93.50;;;;;;4976727;28;20972;-86
2023/12/19 08:07:08;;;;;;;3.90;2.53;;;6.50;93.50;;;;;;4976696;28;20201;-88
2023/12/19 08:09:34;;;;;;;1.93;1.83;;;6.50;93.60;;;;;;4994330;28;20502;-86
2023/12/19 08:11:59;;;;;;;1.63;1.53;;;6.50;93.30;;;;;;4976260;28;20225;-87
2023/12/19 08:14:25;;;;;;;4.77;1.57;;;6.50;93.40;;;;;;4976863;28;20206;-85
2023/12/19 08:16:50;;;;;;;2.83;1.90;;;6.60;93.50;;;;;;4976632;28;20202;-86
2023/12/19 08:19:18;;;;;;;2.47;2.27;;;6.60;93.50;;;;;;4994083;28;20216;-86
2023/12/19 08:22:02;;;;;;;1.33;1.33;;;6.60;93.50;;;;;;4975610;28;20230;-86
2023/12/19 08:24:28;;;;;;;2.63;2.23;;;6.60;93.50;;;;;;4972903;28;20451;-86
2023/12/19 08:26:53;;;;;;;3.03;2.33;;;6.70;92.90;;;;;;4993219;28;20890;-85
2023/12/19 08:29:19;;;;;;;3.23;1.53;;;6.70;92.80;;;;;;4975654;28;20173;-86
2023/12/19 08:31:46;;;;;;;0.90;0.80;;;6.80;92.30;;;;;;4992638;28;20252;-85
2023/12/19 08:34:11;;;;;;;1.13;1.10;;;6.80;92.00;;;;;;4975389;28;20268;-86
2023/12/19 08:36:37;;;;;;;1.63;1.53;;;6.90;92.00;;;;;;4975082;28;20504;-86
2023/12/19 08:39:07;;;;;;;1.67;1.67;;;6.90;91.70;;;;;;4975186;28;20182;-87
2023/12/19 08:41:33;;;;;;;3.23;1.20;;;7.00;91.10;;;;;;4975210;28;20213;-85
2023/12/19 08:43:58;;;;;;;1.17;1.07;;;7.00;91.30;;;;;;4974805;28;20807;-86
2023/12/19 08:46:24;;;;;;;2.93;1.63;;;7.00;90.80;;;;;;4976817;28;20205;-86
2023/12/19 08:48:52;;;;;;;1.80;1.73;;;7.10;90.80;;;;;;4975032;28;20639;-86
2023/12/19 08:51:18;;;;;;;1.43;1.10;;;7.00;90.80;;;;;;4974846;28;20206;-86
2023/12/19 08:53:43;;;;;;;1.50;1.40;;;7.10;91.20;;;;;;4992244;28;20588;-84
2023/12/19 08:56:09;;;;;;;3.13;1.20;;;7.00;90.70;;;;;;4974810;28;20193;-86
2023/12/19 08:58:34;;;;;;;3.53;2.13;;;7.00;90.60;;;;;;4974980;28;20265;-88
2023/12/19 09:01:00;;;;;;;1.43;1.33;;;7.00;91.20;;;;;;4974523;28;20201;-85
2023/12/19 09:03:26;;;;;;;1.53;1.43;;;7.00;90.60;;;;;;4987461;28;20188;-87
2023/12/19 09:05:51;;;;;;;3.80;3.60;;;7.00;91.00;;;;;;4974595;28;20636;-86
2023/12/19 09:08:17;;;;;;;2.13;1.43;;;7.00;91.00;;;;;;4970024;28;20308;-84
2023/12/19 09:10:42;;;;;;;2.97;2.17;;;7.00;91.10;;;;;;4972258;28;20205;-85
2023/12/19 09:13:08;;;;;;;3.07;2.87;;;7.00;91.20;;;;;;4972884;28;20682;-85
2023/12/19 09:15:35;;;;;;;3.03;2.90;;;7.00;91.20;;;;;;4991019;28;20221;-86
2023/12/19 09:18:02;;;;;;;1.17;1.07;;;7.00;91.40;;;;;;4973722;28;20520;-86
2023/12/19 09:20:28;;;;;;;1.10;1.00;;;7.00;91.50;;;;;;4974116;28;20531;-86
2023/12/19 09:22:54;;;;;;;1.43;1.33;;;7.10;92.00;;;;;;4991554;28;20429;-86
2023/12/19 09:25:19;;;;;;;1.57;1.37;;;7.00;91.80;;;;;;4974045;28;20197;-87
2023/12/19 09:27:45;;;;;;;1.40;1.30;;;7.10;92.00;;;;;;4974052;28;20997;-86
2023/12/19 09:30:12;;;;;;;1.10;1.00;;;7.10;91.90;;;;;;4974034;28;20320;-86
2023/12/19 09:32:39;;;;;;;1.43;1.33;;;7.10;91.90;;;;;;4973786;28;20248;-86
2023/12/19 09:35:06;;;;;;;1.63;1.53;;;7.10;92.10;;;;;;4973992;28;20512;-88
2023/12/19 09:37:32;;;;;;;2.60;2.40;;;7.10;91.90;;;;;;4974083;28;20429;-86
2023/12/19 09:39:57;;;;;;;3.33;1.20;;;7.10;92.10;;;;;;4991324;28;20575;-86
2023/12/19 09:42:23;;;;;;;1.20;1.10;;;7.10;92.30;;;;;;4973699;28;20213;-85
2023/12/19 09:44:49;;;;;;;2.00;1.90;;;7.20;92.40;;;;;;4991100;28;20181;-86
2023/12/19 09:47:21;;;;;;;1.30;1.20;;;7.20;92.60;;;;;;4974100;28;20565;-87
2023/12/19 09:49:53;;;;;;;1.10;1.00;;;7.20;92.30;;;;;;4973990;28;20448;-85
2023/12/19 09:52:22;;;;;;;2.00;1.90;;;7.20;92.10;;;;;;4991449;28;20460;-85
2023/12/19 09:54:49;;;;;;;2.07;1.37;;;7.30;92.30;;;;;;4973638;28;20461;-85
2023/12/19 09:57:16;;;;;;;2.93;1.27;;;7.30;92.00;;;;;;4991605;28;20424;-86
2023/12/19 09:59:44;;;;;;;1.33;1.23;;;7.30;92.50;;;;;;4973823;28;21072;-86
2023/12/19 10:02:10;;;;;;;1.83;1.73;;;7.40;92.10;;;;;;4991144;28;20469;-86
2023/12/19 10:04:35;;;;;;;1.37;1.30;;;7.40;91.90;;;;;;4991192;28;20523;-86
2023/12/19 10:07:01;;;;;;;1.40;1.30;;;7.50;92.10;;;;;;4991530;28;20186;-86
2023/12/19 10:09:27;;;;;;;1.13;0.90;;;7.50;92.40;;;;;;4973665;28;20586;-86
2023/12/19 10:12:12;;;;;;;1.33;1.23;;;7.60;92.00;;;;;;4991364;28;20197;-87
2023/12/19 10:14:38;;;;;;;1.27;1.17;;;7.60;91.90;;;;;;4989576;28;20417;-82
2023/12/19 10:17:14;;;;;;;2.17;2.00;;;7.60;91.90;;;;;;4989014;28;20712;-84
2023/12/19 10:19:40;;;;;;;1.67;1.63;;;7.60;91.50;;;;;;4990553;28;20228;-86
2023/12/19 10:22:06;;;;;;;2.70;1.87;;;7.60;91.60;;;;;;4973355;28;20429;-87
2023/12/19 10:24:31;;;;;;;2.00;1.37;;;7.60;91.70;;;;;;4973045;28;20212;-88
2023/12/19 10:27:01;;;;;;;1.17;1.07;;;7.60;91.70;;;;;;4977227;28;20424;-86
2023/12/19 10:29:28;;;;;;;1.77;1.67;;;7.50;91.90;;;;;;4998431;28;20213;-87
2023/12/19 10:31:54;;;;;;;1.20;1.10;;;7.50;91.90;;;;;;4990036;28;21060;-86
2023/12/19 10:34:22;;;;;;;2.77;1.63;;;7.50;92.10;;;;;;4972666;28;20480;-86
2023/12/19 10:36:48;;;;;;;2.00;1.87;;;7.50;92.20;;;;;;4971393;28;20873;-86
2023/12/19 10:39:18;;;;;;;2.43;2.00;;;7.50;92.30;;;;;;4972930;28;20509;-86
2023/12/19 10:41:44;;;;;;;1.63;1.53;;;7.50;92.40;;;;;;4968238;28;20460;-88
2023/12/19 10:44:12;;;;;;;1.37;1.27;;;7.40;92.50;;;;;;4990411;28;20452;-86
2023/12/19 10:46:38;;;;;;;2.70;2.50;;;7.40;92.60;;;;;;4973034;28;20178;-87
2023/12/19 10:49:04;;;;;;;1.10;1.00;;;7.40;92.70;;;;;;4968393;28;20440;-85
2023/12/19 10:51:41;;;;;;;1.80;1.70;;;7.40;92.80;;;;;;4988462;28;20457;-86
2023/12/19 10:54:08;;;;;;;2.63;1.90;;;7.50;92.70;;;;;;4968072;28;20499;-84
2023/12/19 10:56:45;;;;;;;2.40;1.23;;;7.50;92.80;;;;;;4966908;28;20452;-86
2023/12/19 10:59:23;;;;;;;2.53;1.80;;;7.50;92.90;;;;;;4989438;28;20420;-85
2023/12/19 11:01:51;;;;;;;1.00;0.90;;;7.50;92.90;;;;;;4972210;28;20420;-87
2023/12/19 11:04:24;;;;;;;1.57;1.47;;;7.50;92.70;;;;;;4970475;28;20433;-87
2023/12/19 11:06:56;;;;;;;1.83;1.73;;;7.50;93.10;;;;;;4971973;28;20473;-85
2023/12/19 11:09:28;;;;;;;2.27;2.10;;;7.50;93.20;;;;;;4972715;28;20428;-87
2023/12/19 11:11:54;;;;;;;2.10;1.67;;;7.50;93.20;;;;;;4965302;28;20458;-87
2023/12/19 11:14:24;;;;;;;5.23;2.73;;;7.50;93.10;;;;;;4988784;28;20416;-86
2023/12/19 11:16:57;;;;;;;1.90;1.87;;;7.50;93.20;;;;;;4973253;28;20427;-87
2023/12/19 11:19:27;;;;;;;1.43;1.33;;;7.50;93.40;;;;;;4990066;28;20413;-86
2023/12/19 11:22:21;;;;;;;1.93;1.47;;;7.50;93.40;;;;;;4967891;28;20441;-88
2023/12/19 11:25:07;;;;;;;4.40;2.30;;;7.50;93.00;;;;;;4980265;28;20425;-87
2023/12/19 11:27:43;;;;;;;1.43;1.33;;;7.60;93.30;;;;;;4971713;28;20797;-85
2023/12/19 11:30:38;;;;;;;4.53;3.77;;;7.60;93.10;;;;;;4969158;28;20494;-87
2023/12/19 11:33:04;;;;;;;1.40;1.30;;;7.70;93.30;;;;;;4968911;28;20472;-88
2023/12/19 11:35:31;;;;;;;2.23;2.03;;;7.70;93.30;;;;;;4992333;28;20421;-86
2023/12/19 11:38:15;;;;;;;3.43;2.47;;;7.70;93.30;;;;;;4975228;28;20436;-88
2023/12/19 11:40:50;;;;;;;2.30;2.10;;;7.70;93.20;;;;;;4976610;28;20475;-88
2023/12/19 11:43:27;;;;;;;2.30;1.57;;;7.80;93.40;;;;;;4976274;28;20417;-88
2023/12/19 11:45:57;;;;;;;1.50;1.40;;;7.80;93.60;;;;;;4970565;28;20504;-89
2023/12/19 11:48:37;;;;;;;1.30;1.20;;;7.80;93.70;;;;;;4975630;28;20418;-89
2023/12/19 11:51:04;;;;;;;1.60;1.50;;;7.70;93.60;;;;;;4986941;28;20531;-88
2023/12/19 11:53:30;;;;;;;1.50;1.40;;;7.70;94.00;;;;;;4976109;28;20441;-88
2023/12/19 11:56:09;;;;;;;1.93;1.80;;;7.70;93.90;;;;;;4975980;28;20417;-88
2023/12/19 11:58:46;;;;;;;2.93;1.73;;;7.70;94.50;;;;;;4980319;28;20185;-88
2023/12/19 12:01:12;;;;;;;1.67;1.57;;;7.70;94.50;;;;;;4975987;28;20440;-88
2023/12/19 12:03:37;;;;;;;1.67;1.57;;;7.70;94.80;;;;;;4975963;28;20455;-89
2023/12/19 12:06:04;;;;;;;1.20;1.10;;;7.70;94.90;;;;;;4993195;28;20268;-88
2023/12/19 12:08:29;;;;;;;1.43;1.30;;;7.70;95.10;;;;;;4975547;28;20185;-85
2023/12/19 12:11:13;;;;;;;1.63;1.53;;;7.70;95.50;;;;;;4992742;28;20547;-89
2023/12/19 12:13:39;;;;;;;1.20;1.10;;;7.70;95.90;;;;;;4974345;28;20256;-88
2023/12/19 12:16:05;;;;;;;1.10;1.00;;;7.80;96.40;;;;;;4975736;28;20536;-88
2023/12/19 12:18:31;;;;;;;1.20;1.10;;;7.80;96.60;;;;;;4975615;28;20198;-88
2023/12/19 12:21:10;;;;;;;1.73;1.63;;;7.80;96.60;;;;;;4975526;28;20453;-88
2023/12/19 12:23:36;;;;;;;1.50;1.40;;;7.90;97.10;;;;;;4975532;28;20178;-89
2023/12/19 12:26:03;;;;;;;1.93;1.77;;;7.90;97.30;;;;;;4975290;28;20424;-88
2023/12/19 12:28:28;;;;;;;2.70;2.50;;;7.90;97.30;;;;;;4975648;28;20573;-88
2023/12/19 12:30:59;;;;;;;2.40;2.17;;;7.90;97.30;;;;;;4992690;28;20433;-88
2023/12/19 12:33:25;;;;;;;2.10;1.17;;;8.00;97.30;;;;;;4975642;28;20174;-88
2023/12/19 12:35:51;;;;;;;1.73;1.60;;;8.00;97.30;;;;;;4986725;28;20417;-89
2023/12/19 12:38:19;;;;;;;2.60;2.40;;;8.00;97.30;;;;;;4992862;28;20546;-87
2023/12/19 12:40:56;;;;;;;3.13;2.23;;;8.00;97.30;;;;;;4975358;28;20448;-88
2023/12/19 12:43:39;;;;;;;1.53;1.43;;;8.00;97.30;;;;;;4975169;28;20830;-89
2023/12/19 12:46:12;;;;;;;2.73;2.07;;;8.00;97.30;;;;;;4988139;28;20417;-88
2023/12/19 12:48:41;;;;;;;1.30;1.20;;;8.00;97.30;;;;;;4992433;28;20424;-87
2023/12/19 12:51:07;;;;;;;2.00;1.47;;;8.10;97.30;;;;;;4992577;28;20701;-88
2023/12/19 12:53:34;;;;;;;1.93;1.23;;;8.10;97.30;;;;;;4992564;28;20460;-88
2023/12/19 12:56:08;;;;;;;2.30;1.00;;;8.10;97.30;;;;;;4992300;28;20185;-89
2023/12/19 12:58:34;;;;;;;4.63;2.13;;;8.10;97.30;;;;;;4974817;28;20416;-89
2023/12/19 13:01:00;;;;;;;3.67;2.47;;;8.10;97.30;;;;;;4992064;28;20439;-88
2023/12/19 13:03:30;;;;;;;1.30;1.20;;;8.10;97.30;;;;;;4974889;28;20425;-86
2023/12/19 13:05:55;;;;;;;1.57;1.47;;;8.10;97.30;;;;;;4974898;28;20519;-90
2023/12/19 13:08:21;;;;;;;1.70;1.60;;;8.10;97.30;;;;;;4977075;28;20986;-88
2023/12/19 13:10:46;;;;;;;1.57;1.47;;;8.10;97.30;;;;;;4981103;28;20194;-88
2023/12/19 13:13:13;;;;;;;3.73;1.77;;;8.10;97.30;;;;;;4991977;28;20707;-88
2023/12/19 13:15:39;;;;;;;1.93;1.83;;;8.10;97.30;;;;;;4973830;28;20461;-88
2023/12/19 13:18:04;;;;;;;3.00;2.80;;;8.10;97.30;;;;;;4992443;28;20425;-88
2023/12/19 13:20:30;;;;;;;1.63;1.53;;;8.20;97.30;;;;;;4973892;28;20236;-88
2023/12/19 13:22:56;;;;;;;1.60;1.50;;;8.20;97.30;;;;;;4975479;28;20192;-89
2023/12/19 13:25:22;;;;;;;1.47;1.37;;;8.30;97.30;;;;;;4975052;28;20433;-89
2023/12/19 13:27:47;;;;;;;2.27;2.07;;;8.30;97.30;;;;;;4975862;28;20425;-89
2023/12/19 13:30:13;;;;;;;2.27;2.07;;;8.30;97.30;;;;;;4975476;28;20635;-87
2023/12/19 13:32:39;;;;;;;2.30;2.13;;;8.30;97.30;;;;;;4976121;28;20208;-89
2023/12/19 13:35:06;;;;;;;1.23;1.13;;;8.40;97.30;;;;;;4976180;28;20186;-88
2023/12/19 13:37:32;;;;;;;1.47;1.40;;;8.40;97.30;;;;;;4977204;28;20786;-88
2023/12/19 13:39:59;;;;;;;2.93;2.73;;;8.30;97.30;;;;;;4992252;28;20479;-91
2023/12/19 13:42:24;;;;;;;1.53;1.43;;;8.40;97.30;;;;;;4995956;28;20459;-89
2023/12/19 13:44:50;;;;;;;2.40;1.80;;;8.40;97.30;;;;;;4981922;28;20507;-87
2023/12/19 13:47:16;;;;;;;1.93;1.83;;;8.40;97.30;;;;;;4974144;28;20190;-87
2023/12/19 13:49:41;;;;;;;1.77;1.73;;;8.40;97.30;;;;;;4974206;28;20233;-89
2023/12/19 13:52:07;;;;;;;4.07;2.07;;;8.40;97.30;;;;;;4974335;28;20220;-88
2023/12/19 13:54:32;;;;;;;1.20;1.10;;;8.40;97.30;;;;;;4973703;28;20196;-87
2023/12/19 13:56:58;;;;;;;1.80;1.70;;;8.40;97.30;;;;;;4973679;28;20680;-89
2023/12/19 13:59:24;;;;;;;1.97;1.87;;;8.40;97.30;;;;;;4974019;28;20784;-88
2023/12/19 14:01:50;;;;;;;1.87;1.77;;;8.40;97.30;;;;;;4974066;28;20525;-89
2023/12/19 14:04:16;;;;;;;1.40;1.30;;;8.40;97.30;;;;;;4976189;28;20488;-88
2023/12/19 14:06:44;;;;;;;3.70;1.20;;;8.40;97.30;;;;;;4975888;28;20190;-88
2023/12/19 14:09:15;;;;;;;2.73;1.20;;;8.30;97.30;;;;;;4976521;28;20431;-89
2023/12/19 14:11:40;;;;;;;1.33;1.23;;;8.40;97.30;;;;;;4976337;28;20484;-89
2023/12/19 14:14:06;;;;;;;1.50;1.40;;;8.40;97.30;;;;;;4978567;28;20831;-89
2023/12/19 14:16:31;;;;;;;2.77;2.07;;;8.40;97.30;;;;;;4976699;28;20217;-88
2023/12/19 14:18:57;;;;;;;6.90;1.23;;;8.40;97.30;;;;;;4978764;28;20303;-88
2023/12/19 14:21:22;;;;;;;1.40;1.30;;;8.40;97.30;;;;;;4986316;28;20750;-88
2023/12/19 14:23:48;;;;;;;13.20;3.63;;;8.30;97.30;;;;;;4974911;28;20185;-86
2023/12/19 14:26:14;;;;;;;10.90;5.40;;;8.20;97.30;;;;;;4974761;28;20244;-83
2023/12/19 14:28:39;;;;;;;2.80;2.10;;;8.20;97.30;;;;;;4978511;28;20425;-87
2023/12/19 14:31:07;;;;;;;3.93;1.77;;;8.10;97.30;;;;;;4976074;28;20205;-88
2023/12/19 14:33:32;;;;;;;1.87;1.50;;;8.00;97.30;;;;;;4974811;28;20240;-87
2023/12/19 14:35:57;;;;;;;1.07;0.97;;;8.00;97.30;;;;;;4974041;28;20417;-87
2023/12/19 14:38:23;;;;;;;2.97;2.67;;;7.90;97.30;;;;;;4974852;28;20193;-87
2023/12/19 14:40:49;;;;;;;6.20;3.50;;;7.80;97.30;;;;;;4991531;28;20200;-88
2023/12/19 14:43:14;;;;;;;2.60;2.40;;;7.80;97.30;;;;;;4974865;28;20185;-88
2023/12/19 14:45:40;;;;;;;5.03;3.50;;;7.70;97.30;;;;;;4975105;28;20202;-86
2023/12/19 14:48:06;;;;;;;2.77;1.53;;;7.70;97.30;;;;;;4974399;28;20231;-87
2023/12/19 14:50:31;;;;;;;1.40;1.30;;;7.70;97.30;;;;;;4974634;28;20210;-88
2023/12/19 14:52:57;;;;;;;10.03;3.33;;;7.70;97.30;;;;;;4974000;28;20488;-88
2023/12/19 14:55:22;;;;;;;2.87;1.63;;;7.70;97.30;;;;;;4974056;28;20648;-86
2023/12/19 14:57:48;;;;;;;1.90;1.80;;;7.70;97.30;;;;;;4974067;28;20173;-88
2023/12/19 15:00:14;;;;;;;1.83;1.73;;;7.80;97.30;;;;;;4974531;28;20256;-86
2023/12/19 15:02:39;;;;;;;2.70;2.03;;;7.80;97.30;;;;;;4973573;28;20672;-86
2023/12/19 15:05:05;;;;;;;2.60;2.13;;;7.80;97.30;;;;;;4991313;28;20473;-87
2023/12/19 15:07:30;;;;;;;1.30;1.20;;;7.80;97.30;;;;;;4973670;28;20212;-87
2023/12/19 15:09:56;;;;;;;1.93;1.87;;;7.80;97.30;;;;;;4973817;28;20472;-87
2023/12/19 15:12:21;;;;;;;1.83;1.23;;;7.80;97.30;;;;;;4994594;28;20566;-87
2023/12/19 15:14:47;;;;;;;3.33;1.87;;;7.90;97.30;;;;;;4977771;28;20192;-88
2023/12/19 15:17:13;;;;;;;1.93;1.83;;;7.90;97.30;;;;;;4978401;28;20190;-87
2023/12/19 15:19:38;;;;;;;1.50;1.40;;;7.80;97.30;;;;;;4978313;28;20180;-86
2023/12/19 15:22:04;;;;;;;1.33;1.03;;;7.80;97.30;;;;;;4994915;28;20623;-87
2023/12/19 15:24:32;;;;;;;1.57;1.47;;;7.70;97.30;;;;;;4977261;28;20190;-88
2023/12/19 15:26:57;;;;;;;2.13;1.97;;;7.70;97.30;;;;;;4994184;28;20268;-88
2023/12/19 15:29:24;;;;;;;1.43;1.33;;;7.70;97.30;;;;;;4994638;28;20451;-88
2023/12/19 15:31:50;;;;;;;2.57;2.37;;;7.70;97.30;;;;;;4976591;28;20259;-87
2023/12/19 15:34:16;;;;;;;2.57;2.37;;;7.70;97.30;;;;;;4994337;28;20838;-88
2023/12/19 15:36:42;;;;;;;1.93;1.80;;;7.60;97.30;;;;;;4977619;28;20170;-86
2023/12/19 15:39:08;;;;;;;2.40;2.03;;;7.60;97.30;;;;;;4976864;28;20816;-87
2023/12/19 15:41:37;;;;;;;1.37;1.27;;;7.60;97.30;;;;;;4984442;28;20544;-88
2023/12/19 15:44:02;;;;;;;2.33;2.13;;;7.50;97.30;;;;;;4975667;28;20505;-88
2023/12/19 15:46:30;;;;;;;1.27;1.17;;;7.60;97.30;;;;;;4992410;28;20472;-88
2023/12/19 15:48:57;;;;;;;1.17;1.07;;;7.60;97.30;;;;;;4993741;28;20181;-88
2023/12/19 15:51:23;;;;;;;2.63;1.73;;;7.60;97.30;;;;;;4976004;28;21213;-88
2023/12/19 15:53:49;;;;;;;1.47;1.37;;;7.50;97.30;;;;;;4994240;28;20422;-87
2023/12/19 15:56:25;;;;;;;2.37;1.97;;;7.50;97.30;;;;;;4976890;28;20244;-88
2023/12/19 15:58:50;;;;;;;3.60;2.90;;;7.50;97.30;;;;;;4976347;28;20182;-87
2023/12/19 16:01:16;;;;;;;2.00;1.67;;;7.40;97.30;;;;;;4976210;28;20599;-88
2023/12/19 16:03:45;;;;;;;1.63;1.53;;;7.40;97.30;;;;;;4975977;28;20189;-88
2023/12/19 16:06:11;;;;;;;1.40;1.30;;;7.30;97.30;;;;;;4993802;28;20186;-88
2023/12/19 16:08:39;;;;;;;2.80;2.13;;;7.30;97.30;;;;;;4975813;28;20452;-87
2023/12/19 16:11:04;;;;;;;2.60;2.40;;;7.30;97.30;;;;;;4976428;28;20198;-88
2023/12/19 16:13:30;;;;;;;1.50;1.40;;;7.20;97.30;;;;;;4976463;28;20423;-88
2023/12/19 16:15:56;;;;;;;1.73;1.63;;;7.20;97.30;;;;;;4976143;28;20228;-86
2023/12/19 16:18:22;;;;;;;1.60;1.50;;;7.20;97.30;;;;;;4975673;28;20436;-89
2023/12/19 16:20:47;;;;;;;2.13;2.00;;;7.10;97.30;;;;;;4975392;28;20221;-89
2023/12/19 16:23:13;;;;;;;2.37;1.80;;;7.10;97.30;;;;;;4992265;28;20711;-87
2023/12/19 16:25:38;;;;;;;4.50;1.77;;;7.10;97.30;;;;;;4975513;28;20185;-87
2023/12/19 16:28:04;;;;;;;1.73;1.60;;;7.00;97.30;;;;;;4994070;28;20235;-89
2023/12/19 16:30:29;;;;;;;2.03;1.90;;;7.00;97.30;;;;;;4975618;28;20209;-87
2023/12/19 16:32:55;;;;;;;1.37;1.27;;;6.90;97.30;;;;;;4975429;28;20472;-88
2023/12/19 16:35:20;;;;;;;2.87;1.97;;;6.90;97.30;;;;;;4975722;28;20189;-86
2023/12/19 16:37:46;;;;;;;2.03;1.90;;;6.90;97.30;;;;;;4975352;28;20194;-89
2023/12/19 16:40:11;;;;;;;4.00;1.47;;;6.80;97.30;;;;;;4975390;28;20202;-88
2023/12/19 16:42:37;;;;;;;1.73;1.63;;;6.80;97.30;;;;;;4974976;28;20281;-88
2023/12/19 16:45:03;;;;;;;2.63;2.43;;;6.80;97.30;;;;;;4975190;28;20197;-88
2023/12/19 16:47:28;;;;;;;3.43;2.07;;;6.80;97.30;;;;;;4974156;28;20186;-87
2023/12/19 16:49:56;;;;;;;2.23;2.03;;;6.80;97.30;;;;;;4991783;28;20445;-89
2023/12/19 16:52:21;;;;;;;2.20;2.03;;;6.80;97.30;;;;;;4975117;28;20695;-88
2023/12/19 16:54:47;;;;;;;1.13;1.03;;;6.80;97.30;;;;;;4992358;28;20462;-88
2023/12/19 16:57:12;;;;;;;2.47;1.47;;;6.80;97.30;;;;;;4991433;28;20186;-88
2023/12/19 16:59:38;;;;;;;1.73;1.63;;;6.90;97.30;;;;;;4999654;28;20182;-88
2023/12/19 17:02:04;;;;;;;2.10;1.83;;;6.80;97.30;;;;;;4992045;28;20628;-88
2023/12/19 17:04:29;;;;;;;2.17;2.00;;;6.90;97.30;;;;;;4973689;28;20678;-88
2023/12/19 17:06:55;;;;;;;2.50;2.30;;;6.90;97.30;;;;;;4992536;28;20676;-88
2023/12/19 17:09:20;;;;;;;1.67;1.63;;;6.90;97.30;;;;;;4975025;28;20186;-88
2023/12/19 17:11:46;;;;;;;2.57;1.83;;;6.90;97.30;;;;;;4995526;28;20208;-88
2023/12/19 17:14:11;;;;;;;3.37;2.23;;;6.90;97.30;;;;;;4977029;28;20832;-87
2023/12/19 17:16:38;;;;;;;1.13;1.03;;;6.90;97.30;;;;;;4995998;28;20194;-88
2023/12/19 17:19:04;;;;;;;2.00;1.87;;;6.80;97.30;;;;;;4995321;28;20268;-87
2023/12/19 17:21:30;;;;;;;1.53;1.43;;;6.80;97.30;;;;;;4977099;28;20492;-88
2023/12/19 17:23:55;;;;;;;1.83;1.73;;;6.90;97.30;;;;;;4976937;28;20197;-86
2023/12/19 17:26:23;;;;;;;1.50;1.40;;;6.80;97.30;;;;;;4996085;28;20422;-87
2023/12/19 17:28:49;;;;;;;1.70;1.60;;;6.90;97.30;;;;;;4994293;28;20188;-87
2023/12/19 17:31:15;;;;;;;1.90;1.80;;;6.90;97.30;;;;;;4976699;28;20441;-88
2023/12/19 17:33:40;;;;;;;2.33;2.20;;;6.90;97.30;;;;;;4993941;28;20181;-88
2023/12/19 17:36:06;;;;;;;1.97;1.60;;;6.90;97.30;;;;;;4992859;28;20182;-88
2023/12/19 17:38:31;;;;;;;2.83;1.97;;;6.90;97.30;;;;;;4976450;28;20182;-88
2023/12/19 17:40:57;;;;;;;1.30;1.20;;;6.90;97.30;;;;;;4975223;28;20288;-88
2023/12/19 17:43:22;;;;;;;4.10;2.43;;;6.90;97.30;;;;;;4974301;28;20193;-87
2023/12/19 17:45:48;;;;;;;1.10;1.00;;;6.80;97.30;;;;;;4991725;28;20273;-85
2023/12/19 17:48:13;;;;;;;1.20;1.10;;;6.80;97.30;;;;;;4958219;28;20535;-89
2023/12/19 17:50:39;;;;;;;9.10;2.53;;;6.80;97.30;;;;;;4995814;28;20213;-88
2023/12/19 17:53:04;;;;;;;3.67;1.80;;;6.70;97.30;;;;;;4973928;28;20212;-88
2023/12/19 17:55:30;;;;;;;1.10;1.00;;;6.70;97.30;;;;;;4974460;28;20173;-88
2023/12/19 17:57:55;;;;;;;5.27;1.80;;;6.70;97.30;;;;;;4973997;28;20656;-88